Terminal Aerodrome Forecast
Issued by NWS

Current Version | Previous Version | Text Only | Print | Product List | Glossary On
Versions: 1 2 3 4 5 6 7 8 9 10 11 12 13 14 15 16 17 18
372
FTUS46 KSEW 250741 AAA
TAFPAE
TAF AMD
KPAE 250741Z 2508/2606 15015KT P6SM SCT022 SCT050
      TEMPO 2508/2510 BKN022 BKN050
     FM251000 17015KT P6SM VCSH SCT015 BKN030 BKN100
      TEMPO 2510/2512 17015G23KT -SHRA BKN015 OVC030
     FM251200 18011KT P6SM VCSH BKN015 OVC030
     FM251800 21010KT P6SM -SHRA BKN025 OVC040
     FM260000 19005KT P6SM VCSH FEW028 BKN035 OVC050 PROB30
      2600/2606 -SHRA=

USA.gov is the U.S. government's official web portal to all federal, state and local government web resources and services.